Terminal Aerodrome Forecast
Issued by NWS Grand Forks, ND

Home | Current Version | Previous Version | Text Only | Print | Product List | Glossary On
Versions: 1 2 3 4 5 6 7 8 9 10 11 12 13 14 15 16 17
000
FTUS43 KFGF 261731
TAFFAR
TAF
KFAR 261731Z 2618/2718 26014G22KT P6SM BKN050
     FM270000 27013KT P6SM SCT060
     FM270300 VRB05KT P6SM FEW250
     FM271500 24009KT P6SM SCT200=

USA.gov is the U.S. government's official web portal to all federal, state and local government web resources and services.